createdAt,value
2019-02-09T00:04:52.293Z,99655.31
2019-02-09T00:07:45.946Z,99663.69
2019-02-09T00:10:33.615Z,99654.69
2019-02-09T00:13:21.587Z,99678.62
2019-02-09T00:16:27.363Z,99729.97
2019-02-09T00:20:18.360Z,99733.17
2019-02-09T00:23:17.009Z,99748.05
2019-02-09T00:26:00.002Z,99784.02
2019-02-09T00:29:04.150Z,99777.53
2019-02-09T00:31:45.408Z,99842.47
2019-02-09T00:37:58.365Z,100473.23
2019-02-09T00:40:52.207Z,100447.97
2019-02-09T00:43:31.206Z,100454.36
2019-02-09T00:46:09.665Z,100408.62
2019-02-09T00:48:47.606Z,100380.20
2019-02-09T00:51:28.771Z,100392.34
2019-02-09T00:54:06.607Z,100382.70
2019-02-09T00:56:49.996Z,100373.06
2019-02-09T00:59:53.811Z,100366.20
2019-02-09T01:02:23.505Z,100355.42
2019-02-09T01:05:07.487Z,100341.03
2019-02-09T01:07:43.697Z,100346.20
2019-02-09T01:15:00.310Z,100358.20
2019-02-09T01:39:11.473Z,100370.39
2019-02-09T02:12:21.821Z,100542.95
2019-02-09T02:14:54.754Z,100559.55
2019-02-09T02:17:27.433Z,100569.87
2019-02-09T02:19:59.404Z,100578.16
2019-02-09T02:22:32.867Z,100589.61
2019-02-09T02:25:09.864Z,100577.73
2019-02-09T02:27:42.378Z,100618.55
2019-02-09T02:30:23.319Z,100647.60
2019-02-09T02:32:55.983Z,100657.88
2019-02-09T02:35:27.868Z,100668.07
2019-02-09T02:37:59.593Z,100697.69
2019-02-09T02:40:32.098Z,100711.87
2019-02-09T02:43:03.946Z,100728.10
2019-02-09T02:45:51.163Z,100735.23
2019-02-09T02:48:25.512Z,100736.89
2019-02-09T03:09:05.312Z,100916.94
2019-02-09T03:11:41.961Z,100947.09
2019-02-09T03:14:22.367Z,100976.00
2019-02-09T03:16:59.283Z,100961.88
2019-02-09T03:19:59.314Z,100941.81
2019-02-09T03:22:38.664Z,100963.14
2019-02-09T03:25:19.679Z,100998.50
2019-02-09T03:27:57.918Z,101045.78
2019-02-09T03:30:47.535Z,101081.56
2019-02-09T03:33:16.825Z,101098.84
2019-02-09T03:35:55.203Z,101122.41
2019-02-09T03:38:34.121Z,101135.73
2019-02-09T03:41:14.285Z,101161.86
2019-02-09T03:47:12.145Z,101211.94
2019-02-09T03:52:47.648Z,101254.23
2019-02-09T03:58:25.999Z,101282.07
2019-02-09T04:01:07.981Z,101277.13
2019-02-09T04:04:13.466Z,101299.69
2019-02-09T04:06:53.058Z,101312.11
2019-02-09T04:09:52.297Z,101289.45
2019-02-09T04:12:47.997Z,101296.93
2019-02-09T04:15:46.550Z,101243.64
2019-02-09T04:19:04.608Z,101259.44
2019-02-09T04:22:25.520Z,101264.77
2019-02-09T04:25:42.809Z,101249.25
2019-02-09T04:28:56.206Z,101240.62
2019-02-09T04:39:33.126Z,101144.75
2019-02-09T04:42:35.174Z,101068.58
2019-02-09T04:45:44.335Z,101036.36
2019-02-09T04:48:36.232Z,100975.73
2019-02-09T04:51:13.969Z,100924.59
2019-02-09T04:53:59.025Z,100919.80
2019-02-09T04:56:44.096Z,100908.84
2019-02-09T04:59:41.828Z,100918.23
2019-02-09T05:02:19.352Z,100912.47
2019-02-09T05:05:03.505Z,100884.95
2019-02-09T05:07:52.330Z,100861.82
2019-02-09T05:10:30.872Z,100849.80
2019-02-09T05:13:04.791Z,100852.97
2019-02-09T05:15:40.101Z,100871.32
2019-02-09T05:18:12.725Z,100884.16
2019-02-09T05:20:52.234Z,100907.26
2019-02-09T05:23:25.010Z,100937.42
2019-02-09T05:26:05.403Z,100955.81
2019-02-09T05:28:40.013Z,101008.17
2019-02-09T05:31:22.627Z,101062.66
2019-02-09T05:33:49.963Z,101076.80
2019-02-09T05:36:44.041Z,101072.27
2019-02-09T05:39:23.225Z,101064.73
2019-02-09T05:41:55.723Z,101030.66
2019-02-09T05:44:45.847Z,101003.39
2019-02-09T05:47:39.068Z,100968.72
2019-02-09T05:50:55.508Z,100923.52
2019-02-09T05:53:39.010Z,100890.96
2019-02-09T05:56:22.886Z,100826.41
2019-02-09T05:59:21.253Z,100809.08
2019-02-09T06:02:03.986Z,100776.55
2019-02-09T06:05:15.056Z,100724.13
2019-02-09T06:07:50.035Z,100693.67
2019-02-09T06:10:25.787Z,100596.13
2019-02-09T06:13:01.051Z,100504.47
2019-02-09T06:15:45.086Z,100393.92
2019-02-09T06:18:21.869Z,100314.14
2019-02-09T06:20:58.741Z,100228.83
2019-02-09T06:24:12.220Z,100181.03
2019-02-09T06:26:44.826Z,100127.94
2019-02-09T06:29:26.016Z,100066.05
2019-02-09T06:32:10.712Z,100004.83
2019-02-09T06:34:56.279Z,99954.19
2019-02-09T06:37:38.903Z,99907.48
2019-02-09T06:40:14.037Z,99859.74
2019-02-09T06:42:56.442Z,99845.82
2019-02-09T06:45:29.572Z,99832.94
2019-02-09T06:48:24.830Z,99842.19
2019-02-09T06:51:03.140Z,99847.83
2019-02-09T06:53:40.190Z,99835.88
2019-02-09T06:56:14.115Z,99851.42
2019-02-09T06:58:50.783Z,99847.45
2019-02-09T07:01:24.087Z,99857.74
2019-02-09T07:04:08.601Z,99867.84
2019-02-09T07:06:55.379Z,99863.19
2019-02-09T07:09:34.707Z,99867.52
2019-02-09T07:12:12.606Z,99883.64
2019-02-09T07:14:48.557Z,99896.69
2019-02-09T07:17:23.496Z,99891.66
2019-02-09T07:20:08.111Z,99906.00
2019-02-09T07:22:48.228Z,99904.14
2019-02-09T07:28:51.173Z,99916.93
2019-02-09T07:31:34.978Z,99917.68
2019-02-09T07:34:11.809Z,99923.59
2019-02-09T07:36:47.871Z,99919.52
2019-02-09T07:39:26.066Z,99929.24
2019-02-09T07:42:07.236Z,99975.43
2019-02-09T07:45:01.108Z,99977.91
2019-02-09T07:47:51.206Z,100015.72
2019-02-09T07:54:20.770Z,100087.01
2019-02-09T07:56:55.683Z,100104.47
2019-02-09T08:00:03.619Z,100107.84
2019-02-09T08:02:59.239Z,100149.15
2019-02-09T08:11:54.590Z,100084.59
2019-02-09T08:26:17.262Z,100222.62
2019-02-09T08:28:55.565Z,100047.95
2019-02-09T08:35:26.604Z,99985.35
2019-02-09T08:38:11.966Z,99977.60
2019-02-09T08:40:47.787Z,99976.59
2019-02-09T08:43:20.251Z,99949.08
2019-02-09T08:45:55.446Z,99927.59
2019-02-09T08:48:28.618Z,100027.25
2019-02-09T08:52:05.352Z,100008.55
2019-02-09T08:55:26.867Z,99987.45
2019-02-09T09:04:34.977Z,100124.40
2019-02-09T09:07:14.475Z,100123.00
2019-02-09T09:10:33.934Z,100116.61
2019-02-09T09:16:46.966Z,100051.64
2019-02-09T09:19:26.782Z,100026.22
2019-02-09T09:22:41.794Z,100019.70
2019-02-09T09:25:37.797Z,100014.78
2019-02-09T09:31:31.589Z,99990.05
2019-02-09T09:34:05.104Z,100001.64
2019-02-09T09:36:37.379Z,100022.45
2019-02-09T09:39:12.803Z,100054.83
2019-02-09T09:41:46.432Z,100036.56
2019-02-09T09:44:19.634Z,99436.32
2019-02-09T09:46:52.767Z,99447.01
2019-02-09T09:49:24.146Z,99503.81
2019-02-09T09:54:19.141Z,99475.39
2019-02-09T09:56:52.783Z,99485.88
2019-02-09T09:59:25.308Z,99481.83
2019-02-09T10:02:01.770Z,99494.44
2019-02-09T10:04:41.280Z,99481.88
2019-02-09T10:07:15.422Z,99491.97
2019-02-09T10:09:47.556Z,99498.39
2019-02-09T10:12:24.577Z,99492.75
2019-02-09T10:14:56.827Z,99493.75
2019-02-09T10:17:29.039Z,99503.78
2019-02-09T10:22:37.681Z,99492.66
2019-02-09T10:25:10.905Z,99512.69
2019-02-09T10:27:42.655Z,99512.73
2019-02-09T10:30:20.114Z,99511.55
2019-02-09T10:32:56.288Z,99505.08
2019-02-09T10:35:32.823Z,99503.84
2019-02-09T10:40:15.304Z,99508.53
2019-02-09T10:42:48.121Z,99502.85
2019-02-09T10:45:34.142Z,99500.67
2019-02-09T10:48:07.196Z,99500.58
2019-02-09T10:50:41.903Z,99490.19
2019-02-09T10:53:14.012Z,99494.28
2019-02-09T10:55:46.668Z,99463.58
2019-02-09T10:58:24.913Z,99483.77
2019-02-09T11:03:24.894Z,99465.41
2019-02-09T11:05:57.330Z,99467.32
2019-02-09T11:08:30.110Z,99466.92
2019-02-09T11:11:04.801Z,99430.80
2019-02-09T11:13:36.170Z,99418.49
2019-02-09T11:16:14.394Z,99409.80
2019-02-09T11:18:46.472Z,99415.14
2019-02-09T11:24:23.496Z,99393.11
2019-02-09T11:26:55.707Z,99386.13
2019-02-09T11:29:27.625Z,99393.38
2019-02-09T11:32:01.323Z,99378.59
2019-02-09T11:34:33.395Z,99382.88
2019-02-09T11:37:06.035Z,99369.73
2019-02-09T11:39:38.755Z,99387.94
2019-02-09T11:42:10.722Z,99370.77
2019-02-09T11:44:47.547Z,99378.23
2019-02-09T11:47:20.866Z,99382.89
2019-02-09T11:49:57.413Z,99378.70
2019-02-09T11:53:15.949Z,99359.52
2019-02-09T11:55:49.888Z,99372.02
2019-02-09T11:58:21.879Z,99375.08
2019-02-09T12:01:12.936Z,99365.33
2019-02-09T12:03:52.281Z,99360.29
2019-02-09T12:07:09.519Z,99368.67
2019-02-09T12:09:49.638Z,99358.59
2019-02-09T12:12:25.651Z,99346.47
2019-02-09T12:15:00.259Z,99350.93
2019-02-09T12:17:35.734Z,99341.69
2019-02-09T12:20:11.711Z,99340.06
2019-02-09T12:22:44.521Z,99340.16
2019-02-09T12:25:24.991Z,99338.56
2019-02-09T12:27:56.571Z,99316.23
2019-02-09T12:30:49.378Z,99322.83
2019-02-09T12:33:57.184Z,99303.84
2019-02-09T12:36:30.922Z,99319.36
2019-02-09T12:39:11.909Z,99312.78
2019-02-09T12:41:47.287Z,99313.17
2019-02-09T12:44:20.263Z,99319.17
2019-02-09T12:46:54.126Z,99284.74
2019-02-09T12:49:26.899Z,99305.82
2019-02-09T12:51:59.124Z,99270.93
2019-02-09T12:54:40.824Z,99340.83
2019-02-09T12:57:12.763Z,99350.26
2019-02-09T12:59:50.843Z,99353.91
2019-02-09T13:02:22.831Z,99351.41
2019-02-09T13:04:57.491Z,99347.03
2019-02-09T13:07:29.766Z,99346.17
2019-02-09T13:10:02.838Z,99352.27
2019-02-09T13:12:34.598Z,99342.06
2019-02-09T13:15:16.166Z,99334.15
2019-02-09T13:17:50.425Z,99348.73
2019-02-09T13:20:23.927Z,99347.97
2019-02-09T13:22:57.226Z,99350.17
2019-02-09T13:25:29.565Z,99355.31
2019-02-09T13:28:02.739Z,99336.27
2019-02-09T13:30:37.590Z,99360.75
2019-02-09T13:33:10.993Z,99318.62
2019-02-09T13:35:44.373Z,99351.70
2019-02-09T13:38:19.196Z,99341.60
2019-02-09T13:40:50.769Z,99324.53
2019-02-09T13:43:34.187Z,99341.79
2019-02-09T13:46:09.906Z,99339.41
2019-02-09T13:48:45.963Z,99340.27
2019-02-09T13:51:18.231Z,99330.45
2019-02-09T13:53:50.019Z,99342.16
2019-02-09T13:56:22.525Z,99348.36
2019-02-09T13:58:54.106Z,99361.13
2019-02-09T14:01:28.767Z,99351.42
2019-02-09T14:04:02.642Z,99330.43
2019-02-09T14:06:35.641Z,99376.90
2019-02-09T14:09:09.900Z,99367.73
2019-02-09T14:11:48.358Z,99370.47
2019-02-09T14:14:28.517Z,99355.76
2019-02-09T14:17:04.859Z,99328.75
2019-02-09T14:19:37.189Z,99283.44
2019-02-09T14:22:09.459Z,99263.11
2019-02-09T14:24:42.107Z,99274.66
2019-02-09T14:27:17.631Z,99246.65
2019-02-09T14:29:50.632Z,99231.23
2019-02-09T14:32:22.476Z,99242.35
2019-02-09T14:34:55.693Z,99224.94
2019-02-09T14:37:28.335Z,99200.44
2019-02-09T14:40:01.261Z,99204.44
2019-02-09T14:42:34.340Z,99212.45
2019-02-09T14:45:31.928Z,99231.02
2019-02-09T14:48:04.755Z,99219.23
2019-02-09T14:50:37.343Z,99228.92
2019-02-09T14:53:14.618Z,99238.10
2019-02-09T14:55:49.492Z,99247.14
2019-02-09T14:58:21.934Z,99258.44
2019-02-09T15:00:54.664Z,99322.60
2019-02-09T15:03:30.794Z,99310.22
2019-02-09T15:06:03.765Z,99319.26
2019-02-09T15:08:34.897Z,99290.87
2019-02-09T15:11:09.943Z,99324.28
2019-02-09T15:13:42.640Z,99327.15
2019-02-09T15:16:43.153Z,99336.02
2019-02-09T15:19:22.904Z,99326.94
2019-02-09T15:22:29.924Z,99316.56
2019-02-09T15:28:05.722Z,99335.77
2019-02-09T15:30:41.070Z,99324.45
2019-02-09T15:33:13.037Z,99335.47
2019-02-09T15:36:09.166Z,99328.81
2019-02-09T15:39:07.221Z,99331.75
2019-02-09T15:41:46.177Z,99350.89
2019-02-09T15:44:34.684Z,99332.18
2019-02-09T15:47:07.306Z,99335.88
2019-02-09T15:52:42.103Z,99354.97
2019-02-09T15:55:25.512Z,99366.97
2019-02-09T15:58:01.649Z,99368.06
2019-02-09T16:01:01.052Z,99362.37
2019-02-09T16:03:45.458Z,99376.70
2019-02-09T16:06:20.646Z,99377.99
2019-02-09T16:08:57.635Z,99390.59
2019-02-09T16:11:55.009Z,99425.29
2019-02-09T16:14:27.715Z,99434.52
2019-02-09T16:17:00.402Z,99447.30
2019-02-09T16:19:32.434Z,99437.92
2019-02-09T16:22:04.379Z,99470.00
2019-02-09T16:24:37.452Z,99471.05
2019-02-09T16:27:12.066Z,99507.42
2019-02-09T16:29:44.528Z,99493.66
2019-02-09T16:32:19.878Z,99506.04
2019-02-09T16:34:54.476Z,100170.23
2019-02-09T16:37:29.033Z,100144.52
2019-02-09T16:40:01.310Z,100123.97
2019-02-09T16:42:36.657Z,100134.95
2019-02-09T16:45:11.603Z,100132.70
2019-02-09T16:47:45.112Z,100124.99
2019-02-09T16:50:17.275Z,100148.13
2019-02-09T16:52:52.760Z,100169.47
2019-02-09T16:55:25.915Z,100173.70
2019-02-09T16:57:58.528Z,100198.62
2019-02-09T17:00:33.903Z,100215.83
2019-02-09T17:03:07.909Z,100225.92
2019-02-09T17:05:40.198Z,100245.82
2019-02-09T17:08:12.631Z,100252.38
2019-02-09T17:10:50.071Z,100302.05
2019-02-09T17:13:22.858Z,100353.08
2019-02-09T17:15:55.672Z,100348.84
2019-02-09T17:18:27.275Z,100369.15
2019-02-09T17:20:59.277Z,100370.77
2019-02-09T17:23:30.679Z,100381.03
2019-02-09T17:26:05.225Z,100402.19
2019-02-09T17:28:37.365Z,100412.00
2019-02-09T17:31:09.798Z,100429.41
2019-02-09T17:33:42.507Z,100456.50
2019-02-09T17:36:14.516Z,100468.83
2019-02-09T17:38:46.324Z,100468.48
2019-02-09T17:41:26.009Z,100494.14
2019-02-09T17:44:08.902Z,100487.48
2019-02-09T17:46:44.608Z,100507.31
2019-02-09T17:49:18.547Z,100519.64
2019-02-09T17:51:55.513Z,100530.17
2019-02-09T17:54:27.571Z,100525.68
2019-02-09T17:56:59.582Z,100533.25
2019-02-09T17:59:31.423Z,100539.64
2019-02-09T18:02:17.660Z,100547.25
2019-02-09T18:04:50.141Z,100553.98
2019-02-09T18:07:21.652Z,100569.83
2019-02-09T18:09:53.938Z,100559.97
2019-02-09T18:12:26.096Z,100568.90
2019-02-09T18:14:58.041Z,100558.83
2019-02-09T18:17:30.738Z,100540.31
2019-02-09T18:20:04.377Z,100526.52
2019-02-09T18:22:39.414Z,100503.30
2019-02-09T18:25:20.538Z,100477.50
2019-02-09T18:27:53.091Z,100459.67
2019-02-09T18:30:24.958Z,100444.41
2019-02-09T18:32:58.073Z,100395.98
2019-02-09T18:35:31.123Z,100353.05
2019-02-09T18:38:03.224Z,100297.52
2019-02-09T18:40:36.944Z,100262.42
2019-02-09T18:43:08.248Z,100234.81
2019-02-09T18:45:40.111Z,100216.70
2019-02-09T18:48:11.904Z,100209.56
2019-02-09T18:50:44.376Z,100179.32
2019-02-09T18:53:16.882Z,100175.46
2019-02-09T18:55:50.587Z,100161.95
2019-02-09T18:58:23.139Z,100187.19
2019-02-09T19:00:55.426Z,100186.70
2019-02-09T19:03:28.461Z,100183.38
2019-02-09T19:06:00.940Z,99574.92
2019-02-09T19:08:32.726Z,99556.02
2019-02-09T19:11:05.324Z,99580.30
2019-02-09T19:13:37.336Z,99605.09
2019-02-09T19:16:09.293Z,99611.09
2019-02-09T19:18:41.612Z,99635.25
2019-02-09T19:21:15.970Z,99644.18
2019-02-09T19:23:47.938Z,99660.63
2019-02-09T19:26:19.819Z,99666.44
2019-02-09T19:28:51.295Z,99704.61
2019-02-09T19:31:23.180Z,99710.56
2019-02-09T19:33:54.987Z,99718.79
2019-02-09T19:36:29.311Z,99736.66
2019-02-09T19:39:01.502Z,99727.33
2019-02-09T19:41:34.821Z,99744.04
2019-02-09T19:44:06.182Z,99754.45
2019-02-09T19:46:37.570Z,99747.95
2019-02-09T19:49:10.144Z,99765.29
2019-02-09T19:51:43.268Z,99762.20
2019-02-09T19:54:24.770Z,99748.27
2019-02-09T19:56:56.968Z,99764.28
2019-02-09T19:59:28.820Z,99775.43
2019-02-09T20:02:00.343Z,99774.59
2019-02-09T20:04:32.171Z,99767.80
2019-02-09T20:07:04.326Z,99796.29
2019-02-09T20:09:37.025Z,99784.65
2019-02-09T20:12:11.635Z,99800.12
2019-02-09T20:14:47.645Z,99795.63
2019-02-09T20:17:20.024Z,99781.59
2019-02-09T20:19:52.855Z,99752.73
2019-02-09T20:22:25.273Z,99744.86
2019-02-09T20:24:57.231Z,99757.58
2019-02-09T20:27:30.797Z,99762.69
2019-02-09T20:30:03.141Z,99749.58
2019-02-09T20:32:35.035Z,99757.58
2019-02-09T20:35:08.458Z,99779.18
2019-02-09T20:37:41.277Z,99762.38
2019-02-09T20:40:21.654Z,99765.09
2019-02-09T20:42:53.058Z,99771.71
2019-02-09T20:45:27.237Z,99768.02
2019-02-09T20:47:59.548Z,99768.82
2019-02-09T20:50:56.324Z,99781.36
2019-02-09T20:53:48.138Z,99766.16
2019-02-09T20:56:20.857Z,99779.63
2019-02-09T20:59:26.382Z,99787.72
2019-02-09T21:02:21.479Z,99765.75
2019-02-09T21:04:54.426Z,99777.36
2019-02-09T21:07:30.867Z,99786.22
2019-02-09T21:10:02.954Z,99792.40
2019-02-09T21:12:34.475Z,99779.63
2019-02-09T21:15:07.909Z,99782.04
2019-02-09T21:17:39.999Z,99789.59
2019-02-09T21:20:12.384Z,99800.49
2019-02-09T21:22:45.616Z,99800.04
2019-02-09T21:25:20.076Z,99793.91
2019-02-09T21:28:02.765Z,99774.52
2019-02-09T21:30:35.269Z,99794.45
2019-02-09T21:33:23.556Z,99795.20
2019-02-09T21:35:55.185Z,99784.03
2019-02-09T21:38:27.127Z,99780.87
2019-02-09T21:40:58.639Z,99783.38
2019-02-09T21:43:29.849Z,99790.98
2019-02-09T21:46:01.545Z,99794.84
2019-02-09T21:48:34.402Z,99777.73
2019-02-09T21:51:06.727Z,99804.05
2019-02-09T21:53:38.223Z,99787.95
2019-02-09T21:56:12.060Z,99794.75
2019-02-09T21:58:45.243Z,99806.08
2019-02-09T22:01:16.983Z,99812.41
2019-02-09T22:03:51.001Z,99811.33
2019-02-09T22:06:23.286Z,99821.06
2019-02-09T22:08:54.669Z,99826.00
2019-02-09T22:11:26.602Z,99827.73
2019-02-09T22:14:00.194Z,99820.36
2019-02-09T22:16:33.226Z,99824.27
2019-02-09T22:19:05.927Z,99836.53
2019-02-09T22:21:38.912Z,99842.18
2019-02-09T22:24:11.436Z,99839.02
2019-02-09T22:26:43.129Z,99821.62
2019-02-09T22:29:15.309Z,99837.55
2019-02-09T22:31:48.334Z,99843.10
2019-02-09T22:34:20.208Z,99829.13
2019-02-09T22:36:53.077Z,99842.60
2019-02-09T22:39:24.435Z,99846.10
2019-02-09T22:41:56.849Z,99859.98
2019-02-09T22:44:28.976Z,99856.28
2019-02-09T22:47:00.759Z,99861.54
2019-02-09T22:49:32.130Z,99866.11
2019-02-09T22:52:03.806Z,99859.67
2019-02-09T22:54:35.293Z,99857.54
2019-02-09T22:57:06.838Z,99859.62
2019-02-09T22:59:57.102Z,99870.98
2019-02-09T23:02:29.348Z,99875.62
2019-02-09T23:05:32.574Z,99867.61
2019-02-09T23:08:04.516Z,99874.75
2019-02-09T23:10:36.597Z,99878.80
2019-02-09T23:13:09.191Z,99862.56
2019-02-09T23:15:41.022Z,99885.10
2019-02-09T23:18:13.512Z,99879.81
2019-02-09T23:20:45.921Z,99880.98
2019-02-09T23:23:18.133Z,99891.97
2019-02-09T23:25:50.539Z,99887.41
2019-02-09T23:28:23.449Z,99880.73
2019-02-09T23:30:55.187Z,99854.78
2019-02-09T23:33:27.344Z,99866.94
2019-02-09T23:35:58.654Z,99861.08
2019-02-09T23:38:31.163Z,99862.86
2019-02-09T23:41:03.325Z,99855.79
2019-02-09T23:43:34.670Z,99866.61
2019-02-09T23:48:47.347Z,99849.61
2019-02-09T23:51:19.286Z,99861.44
2019-02-09T23:53:59.952Z,99860.88
2019-02-09T23:56:31.244Z,99858.62
2019-02-09T23:59:02.905Z,99850.46
